Time;durP1;ratioP1;P1;durP2;ratioP2;P2;SDS_P1;SDS_P2;PMS_P1;PMS_P2;Temp;Humidity;BMP_temperature;BMP_pressure;BME280_temperature;BME280_humidity;BME280_pressure;Samples;Min_cycle;Max_cycle;Signal;HPM_P1;HPM_P2
2022/12/24 00:02:14;;;;;;;53.28;22.92;;;6.30;99.90;;;;;;5022032;28;20037;-80
2022/12/24 00:04:39;;;;;;;49.55;22.13;;;6.50;99.90;;;;;;5044826;28;20036;-80
2022/12/24 00:07:05;;;;;;;49.05;22.70;;;6.20;99.90;;;;;;5040035;28;20424;-81
2022/12/24 00:09:30;;;;;;;51.25;22.67;;;6.20;99.90;;;;;;5031255;28;20518;-80
2022/12/24 00:11:56;;;;;;;54.97;23.00;;;6.60;99.90;;;;;;5058976;28;20614;-81
2022/12/24 00:14:22;;;;;;;45.58;21.05;;;6.40;99.90;;;;;;5043137;28;20095;-80
2022/12/24 00:16:47;;;;;;;42.67;20.98;;;6.60;99.90;;;;;;5038131;28;20047;-81
2022/12/24 00:19:13;;;;;;;49.63;22.17;;;6.30;99.90;;;;;;5067904;28;20128;-82
2022/12/24 00:21:39;;;;;;;44.67;21.88;;;6.20;99.90;;;;;;5050068;28;20076;-81
2022/12/24 00:24:05;;;;;;;49.05;22.60;;;6.30;99.90;;;;;;5036929;28;20043;-80
2022/12/24 00:26:32;;;;;;;45.97;21.83;;;6.30;99.90;;;;;;5037792;28;20402;-80
2022/12/24 00:28:57;;;;;;;45.88;21.48;;;6.40;99.90;;;;;;5027952;28;20041;-81
2022/12/24 00:31:23;;;;;;;42.25;20.08;;;6.60;99.90;;;;;;5036377;28;20060;-82
2022/12/24 00:33:49;;;;;;;43.05;20.63;;;6.30;99.90;;;;;;5017750;28;20089;-81
2022/12/24 00:36:15;;;;;;;43.70;21.13;;;6.20;99.90;;;;;;5071057;28;20139;-81
2022/12/24 00:38:41;;;;;;;45.67;21.00;;;6.60;99.90;;;;;;5037862;28;20107;-81
2022/12/24 00:41:23;;;;;;;45.33;20.92;;;6.20;99.90;;;;;;5042871;28;20041;-80
2022/12/24 00:43:54;;;;;;;45.67;21.80;;;6.20;99.90;;;;;;5045410;28;20117;-81
2022/12/24 00:46:20;;;;;;;42.45;20.58;;;6.20;99.90;;;;;;5033065;28;20488;-82
2022/12/24 00:48:45;;;;;;;44.67;21.10;;;6.20;99.90;;;;;;5034452;28;20044;-78
2022/12/24 00:51:11;;;;;;;41.75;21.05;;;6.60;99.90;;;;;;5037199;28;20095;-80
2022/12/24 00:53:37;;;;;;;45.05;21.17;;;6.30;99.90;;;;;;5043037;28;21553;-81
2022/12/24 00:56:04;;;;;;;46.58;21.73;;;6.30;99.90;;;;;;5025311;28;20037;-80
2022/12/24 00:58:30;;;;;;;44.47;21.02;;;6.50;99.90;;;;;;5072836;28;20037;-82
2022/12/24 01:00:55;;;;;;;36.53;20.17;;;6.20;99.90;;;;;;5045779;28;20365;-81
2022/12/24 01:03:21;;;;;;;41.17;20.58;;;6.60;99.90;;;;;;5036622;28;20064;-80
2022/12/24 01:05:47;;;;;;;42.90;21.30;;;6.20;99.90;;;;;;5020679;28;20033;-78
2022/12/24 01:08:13;;;;;;;44.70;21.00;;;6.30;99.90;;;;;;5018117;28;20400;-81
2022/12/24 01:10:38;;;;;;;48.70;21.33;;;6.30;99.90;;;;;;5018297;28;20057;-80
2022/12/24 01:13:35;;;;;;;42.15;20.30;;;6.60;99.90;;;;;;5038641;28;20045;-81
2022/12/24 01:16:01;;;;;;;44.80;21.58;;;6.40;99.90;;;;;;5070190;28;20392;-81
2022/12/24 01:18:27;;;;;;;52.92;22.92;;;6.20;99.90;;;;;;5041977;28;20028;-81
2022/12/24 01:20:58;;;;;;;54.67;23.42;;;6.60;99.90;;;;;;5025234;28;20056;-82
2022/12/24 01:23:24;;;;;;;58.05;25.50;;;6.20;99.90;;;;;;5043588;28;20121;-81
2022/12/24 01:25:50;;;;;;;54.90;23.67;;;6.50;99.90;;;;;;5024817;28;20104;-82
2022/12/24 01:28:35;;;;;;;64.43;25.70;;;6.30;99.90;;;;;;5037048;28;20069;-82
2022/12/24 01:31:00;;;;;;;53.70;23.90;;;6.60;99.90;;;;;;5039377;28;20055;-81
2022/12/24 01:33:29;;;;;;;56.15;24.30;;;6.40;99.90;;;;;;5025583;28;20120;-79
2022/12/24 01:35:55;;;;;;;50.47;22.85;;;6.30;99.90;;;;;;5046606;28;20041;-78
2022/12/24 01:38:21;;;;;;;48.00;22.90;;;6.60;99.90;;;;;;5034639;28;20823;-81
2022/12/24 01:43:31;;;;;;;46.92;22.77;;;6.50;99.90;;;;;;5041346;28;20132;-82
2022/12/24 01:46:13;;;;;;;50.45;22.60;;;6.60;99.90;;;;;;5015148;28;20052;-80
2022/12/24 01:48:51;;;;;;;50.50;24.20;;;6.60;99.90;;;;;;5025873;28;20107;-83
2022/12/24 01:51:34;;;;;;;54.42;23.98;;;6.30;99.90;;;;;;5021590;28;20084;-81
2022/12/24 01:54:09;;;;;;;46.25;22.50;;;6.60;99.90;;;;;;5019864;28;20507;-82
2022/12/24 01:56:39;;;;;;;45.70;22.88;;;6.60;99.90;;;;;;5032737;28;20137;-81
2022/12/24 01:59:09;;;;;;;60.05;23.70;;;6.30;99.90;;;;;;5038013;28;20121;-79
2022/12/24 02:01:35;;;;;;;51.97;23.33;;;6.50;99.90;;;;;;5022021;28;20045;-80
2022/12/24 02:04:16;;;;;;;69.95;25.27;;;6.70;99.90;;;;;;5070270;28;20114;-80
2022/12/24 02:06:42;;;;;;;55.70;22.90;;;6.40;99.90;;;;;;5036774;28;20124;-81
2022/12/24 02:09:08;;;;;;;67.63;24.52;;;6.30;99.90;;;;;;5021250;28;20067;-80
2022/12/24 02:11:37;;;;;;;52.35;22.88;;;6.30;99.90;;;;;;5011233;28;20044;-79
2022/12/24 02:14:03;;;;;;;52.47;22.35;;;6.50;99.90;;;;;;5022912;28;20065;-79
2022/12/24 02:16:37;;;;;;;51.25;22.58;;;6.50;99.90;;;;;;5048488;28;20122;-80
2022/12/24 02:19:39;;;;;;;47.38;22.77;;;6.40;99.90;;;;;;5033065;28;20041;-81
2022/12/24 02:22:26;;;;;;;44.15;22.00;;;6.40;99.90;;;;;;5030838;28;20432;-80
2022/12/24 02:25:30;;;;;;;45.30;22.55;;;6.70;99.90;;;;;;5050499;28;20568;-79
2022/12/24 02:28:36;;;;;;;57.97;23.80;;;6.70;99.90;;;;;;4988324;28;20123;-80
2022/12/24 02:31:23;;;;;;;52.75;22.48;;;6.50;99.90;;;;;;5007229;28;20408;-81
2022/12/24 02:34:05;;;;;;;67.38;24.30;;;6.60;99.90;;;;;;5024120;28;20132;-79
2022/12/24 02:36:44;;;;;;;62.40;23.75;;;6.60;99.90;;;;;;5012528;28;20108;-79
2022/12/24 02:39:22;;;;;;;53.75;22.70;;;6.40;99.90;;;;;;4992071;28;20089;-79
2022/12/24 02:42:06;;;;;;;49.03;22.85;;;6.70;99.90;;;;;;5022008;28;20501;-81
2022/12/24 02:44:46;;;;;;;44.40;21.58;;;6.60;99.90;;;;;;4968481;28;20588;-80
2022/12/24 02:47:13;;;;;;;49.47;21.77;;;6.40;99.90;;;;;;5003696;28;20076;-80
2022/12/24 02:49:44;;;;;;;55.38;23.77;;;6.50;99.90;;;;;;4986649;28;20370;-79
2022/12/24 02:52:28;;;;;;;51.22;23.38;;;6.50;99.90;;;;;;4973450;28;20057;-78
2022/12/24 02:54:56;;;;;;;56.85;22.85;;;6.40;99.90;;;;;;5006347;28;20039;-80
2022/12/24 02:57:53;;;;;;;66.90;24.80;;;6.40;99.90;;;;;;5021065;28;20038;-79
2022/12/24 03:00:21;;;;;;;65.80;25.67;;;6.80;99.90;;;;;;4972035;28;20046;-81
2022/12/24 03:02:53;;;;;;;54.13;24.35;;;6.60;99.90;;;;;;4993566;28;20037;-79
2022/12/24 03:05:39;;;;;;;59.05;24.75;;;6.60;99.90;;;;;;5028935;28;20041;-80
2022/12/24 03:08:14;;;;;;;52.72;24.17;;;6.40;99.90;;;;;;5020587;28;20110;-80
2022/12/24 03:11:03;;;;;;;55.33;23.70;;;6.90;99.90;;;;;;5039241;28;20056;-80
2022/12/24 03:13:57;;;;;;;47.95;23.38;;;6.80;99.90;;;;;;5031460;28;20029;-79
2022/12/24 03:16:26;;;;;;;58.88;24.65;;;6.60;99.90;;;;;;5044350;28;20052;-80
2022/12/24 03:18:54;;;;;;;55.65;24.85;;;7.00;99.90;;;;;;5037669;28;20051;-80
2022/12/24 03:21:34;;;;;;;51.70;24.83;;;6.70;99.90;;;;;;5040741;28;20036;-82
2022/12/24 03:24:00;;;;;;;40.72;22.60;;;7.10;99.90;;;;;;5020546;28;20033;-80
2022/12/24 03:26:28;;;;;;;41.80;22.70;;;7.10;99.90;;;;;;5037971;28;20045;-77
2022/12/24 03:28:54;;;;;;;42.33;21.60;;;7.30;99.90;;;;;;5039216;28;20136;-80
2022/12/24 03:31:20;;;;;;;48.22;23.05;;;7.20;99.90;;;;;;5045568;28;20133;-80
2022/12/24 03:33:47;;;;;;;44.03;21.15;;;7.10;99.90;;;;;;5048185;28;20441;-77
2022/12/24 03:36:13;;;;;;;41.30;19.13;;;7.20;99.90;;;;;;5046002;28;20044;-80
2022/12/24 03:38:38;;;;;;;37.80;17.48;;;7.50;99.90;;;;;;5070233;28;20439;-80
2022/12/24 03:41:05;;;;;;;33.28;15.77;;;7.30;99.90;;;;;;5045225;28;20061;-80
2022/12/24 03:43:30;;;;;;;38.60;14.93;;;7.80;99.90;;;;;;5014786;28;20119;-81
2022/12/24 03:45:56;;;;;;;29.13;12.85;;;7.70;99.90;;;;;;5055780;28;20524;-80
2022/12/24 03:48:22;;;;;;;30.92;13.43;;;7.80;99.90;;;;;;5046403;28;20045;-81
2022/12/24 03:50:47;;;;;;;30.20;12.65;;;7.60;99.90;;;;;;5066247;28;20496;-81
2022/12/24 03:53:13;;;;;;;25.08;12.27;;;8.00;99.90;;;;;;5036335;28;20053;-81
2022/12/24 03:55:39;;;;;;;27.60;10.65;;;7.90;99.90;;;;;;5048260;28;20133;-80
2022/12/24 03:58:05;;;;;;;22.48;8.27;;;7.80;99.90;;;;;;5040977;28;20037;-80
2022/12/24 04:00:31;;;;;;;26.67;11.95;;;8.10;99.90;;;;;;5066126;28;20119;-79
2022/12/24 04:02:56;;;;;;;25.80;11.25;;;7.80;99.90;;;;;;5054886;28;20046;-81
2022/12/24 04:05:22;;;;;;;30.27;11.35;;;8.00;99.90;;;;;;5049612;28;20095;-80
2022/12/24 04:07:48;;;;;;;27.05;11.77;;;8.00;99.90;;;;;;5049276;28;20104;-80
2022/12/24 04:10:15;;;;;;;32.72;11.73;;;7.70;99.90;;;;;;5035760;28;20083;-79
2022/12/24 04:12:41;;;;;;;32.17;12.20;;;7.90;99.90;;;;;;5027973;28;20050;-82
2022/12/24 04:15:07;;;;;;;25.25;8.40;;;7.80;99.90;;;;;;5026579;28;20052;-81
2022/12/24 04:17:33;;;;;;;35.63;12.20;;;8.10;99.90;;;;;;5035377;28;20479;-80
2022/12/24 04:19:58;;;;;;;40.75;11.70;;;7.70;99.90;;;;;;5017237;28;20056;-80
2022/12/24 04:22:24;;;;;;;36.08;11.38;;;7.80;99.90;;;;;;5047818;28;20045;-81
2022/12/24 04:24:50;;;;;;;48.40;12.52;;;7.70;99.90;;;;;;5040948;28;20136;-80
2022/12/24 04:27:16;;;;;;;40.97;12.35;;;8.20;99.90;;;;;;5043590;28;20046;-80
2022/12/24 04:29:42;;;;;;;46.78;13.27;;;8.00;99.90;;;;;;5066381;28;20045;-82
2022/12/24 04:32:09;;;;;;;41.75;11.35;;;7.80;99.90;;;;;;5079120;28;20159;-82
2022/12/24 04:34:35;;;;;;;46.17;11.27;;;7.80;99.90;;;;;;5049152;28;20041;-81
2022/12/24 04:37:01;;;;;;;47.25;10.98;;;8.20;99.90;;;;;;5035473;28;20045;-80
2022/12/24 04:39:27;;;;;;;60.17;9.77;;;7.90;99.90;;;;;;5045319;28;20041;-80
2022/12/24 04:41:52;;;;;;;55.05;9.90;;;8.20;99.90;;;;;;5048494;28;20118;-78
2022/12/24 04:44:18;;;;;;;56.97;8.10;;;8.10;99.90;;;;;;5016020;28;20068;-78
2022/12/24 04:46:44;;;;;;;51.72;7.50;;;8.30;99.90;;;;;;5036095;28;20118;-79
2022/12/24 04:49:10;;;;;;;43.30;6.43;;;8.00;99.90;;;;;;5049096;28;20057;-81
2022/12/24 04:51:37;;;;;;;56.15;7.30;;;8.20;99.90;;;;;;5018785;28;20041;-83
2022/12/24 04:54:02;;;;;;;64.32;7.43;;;8.10;99.90;;;;;;5022225;28;20045;-80
2022/12/24 04:56:30;;;;;;;65.00;7.20;;;7.70;99.90;;;;;;5030943;28;20124;-83
2022/12/24 04:58:57;;;;;;;69.43;7.15;;;7.90;99.90;;;;;;5048619;28;20085;-81
2022/12/24 05:01:26;;;;;;;56.30;6.60;;;7.80;99.90;;;;;;5035704;28;20045;-82
2022/12/24 05:03:53;;;;;;;67.43;6.90;;;7.90;99.90;;;;;;5023264;28;20064;-79
2022/12/24 05:06:22;;;;;;;58.35;7.13;;;8.00;99.90;;;;;;5033703;28;20476;-81
2022/12/24 05:08:49;;;;;;;58.15;6.35;;;7.70;99.90;;;;;;5043893;28;20045;-81
2022/12/24 05:11:15;;;;;;;54.53;6.45;;;8.00;99.90;;;;;;5021600;28;20052;-79
2022/12/24 05:13:43;;;;;;;62.42;6.70;;;8.00;99.90;;;;;;5038037;28;20072;-81
2022/12/24 05:16:09;;;;;;;69.07;7.68;;;8.00;99.90;;;;;;5028000;28;20033;-81
2022/12/24 05:18:35;;;;;;;62.95;6.95;;;8.00;99.90;;;;;;5047596;28;20213;-79
2022/12/24 05:21:01;;;;;;;69.00;7.78;;;7.90;99.90;;;;;;5046194;28;20129;-80
2022/12/24 05:26:21;;;;;;;60.88;7.18;;;7.90;99.90;;;;;;5037060;28;20060;-79
2022/12/24 05:28:47;;;;;;;68.00;7.72;;;7.90;99.90;;;;;;5032859;28;20040;-81
2022/12/24 05:31:13;;;;;;;64.32;7.50;;;7.80;99.90;;;;;;5034972;28;20457;-80
2022/12/24 05:33:40;;;;;;;73.93;7.68;;;7.80;99.90;;;;;;5049438;28;20033;-80
2022/12/24 05:36:06;;;;;;;67.80;7.43;;;8.10;99.90;;;;;;5032759;28;20129;-83
2022/12/24 05:38:33;;;;;;;85.50;7.85;;;8.10;99.90;;;;;;5051539;28;20048;-78
2022/12/24 05:40:59;;;;;;;61.38;7.75;;;8.10;99.90;;;;;;5063522;28;20192;-78
2022/12/24 05:43:25;;;;;;;63.78;6.75;;;7.80;99.90;;;;;;5021072;28;20166;-82
2022/12/24 05:45:50;;;;;;;68.88;7.88;;;8.00;99.90;;;;;;5034569;28;20045;-81
2022/12/24 05:48:16;;;;;;;56.53;6.57;;;7.90;99.90;;;;;;5032339;28;20056;-79
2022/12/24 05:50:41;;;;;;;56.08;6.82;;;7.80;99.90;;;;;;5031624;28;20049;-80
2022/12/24 05:53:07;;;;;;;60.13;6.90;;;8.10;99.90;;;;;;5031714;28;20375;-79
2022/12/24 05:55:33;;;;;;;54.83;6.65;;;8.10;99.90;;;;;;5028738;28;20057;-81
2022/12/24 05:57:59;;;;;;;60.72;6.78;;;8.10;99.90;;;;;;5072868;28;20456;-82
2022/12/24 06:00:25;;;;;;;64.43;6.78;;;7.70;99.90;;;;;;5043829;28;20517;-82
2022/12/24 06:02:51;;;;;;;71.68;7.57;;;8.10;99.90;;;;;;5023881;28;20468;-81
2022/12/24 06:05:17;;;;;;;69.00;7.68;;;8.00;99.90;;;;;;5047323;28;20037;-78
2022/12/24 06:07:42;;;;;;;67.03;7.18;;;8.20;99.90;;;;;;5073159;28;20044;-80
2022/12/24 06:10:09;;;;;;;65.32;7.68;;;7.60;99.90;;;;;;5032423;28;20041;-81
2022/12/24 06:12:34;;;;;;;68.85;7.60;;;8.20;99.90;;;;;;5063805;28;20046;-80
2022/12/24 06:15:39;;;;;;;61.80;7.43;;;7.90;99.90;;;;;;5032242;28;20052;-78
2022/12/24 06:18:05;;;;;;;68.85;7.13;;;7.80;99.90;;;;;;5031643;28;20052;-81
2022/12/24 06:20:30;;;;;;;65.70;7.10;;;8.00;99.90;;;;;;5073674;28;20435;-81
2022/12/24 06:22:56;;;;;;;70.78;7.40;;;8.00;99.90;;;;;;5075564;28;20036;-81
2022/12/24 06:25:21;;;;;;;58.97;6.45;;;7.80;99.90;;;;;;5038881;28;20433;-79
2022/12/24 06:27:47;;;;;;;83.05;7.90;;;7.90;99.90;;;;;;5060016;28;20041;-81
2022/12/24 06:30:13;;;;;;;64.90;7.70;;;7.90;99.90;;;;;;5023648;28;20178;-79
2022/12/24 06:32:38;;;;;;;82.47;8.25;;;7.80;99.90;;;;;;5045872;28;20492;-79
2022/12/24 06:35:04;;;;;;;59.15;7.53;;;8.00;99.90;;;;;;5020982;28;20060;-82
2022/12/24 06:37:30;;;;;;;70.95;6.82;;;7.80;99.90;;;;;;5029615;28;20033;-79
2022/12/24 06:39:56;;;;;;;81.40;8.45;;;7.80;99.90;;;;;;5021817;28;20081;-80
2022/12/24 06:42:23;;;;;;;64.97;6.75;;;8.10;99.90;;;;;;5066974;28;20076;-81
2022/12/24 06:44:48;;;;;;;67.10;7.70;;;8.20;99.90;;;;;;5024458;28;20041;-78
2022/12/24 06:47:14;;;;;;;71.97;6.65;;;7.90;99.90;;;;;;5049592;28;20052;-80
2022/12/24 06:49:40;;;;;;;75.70;7.00;;;8.10;99.90;;;;;;5043675;28;20095;-78
2022/12/24 06:52:05;;;;;;;68.80;7.22;;;7.80;99.90;;;;;;5049201;28;20060;-82
2022/12/24 06:54:31;;;;;;;60.70;7.30;;;7.90;99.90;;;;;;5043863;28;20319;-81
2022/12/24 06:56:56;;;;;;;79.35;7.65;;;7.90;99.90;;;;;;5047582;28;20042;-79
2022/12/24 06:59:22;;;;;;;67.55;7.53;;;7.80;99.90;;;;;;5042908;28;20064;-80
2022/12/24 07:01:48;;;;;;;79.22;7.28;;;7.80;99.90;;;;;;5025502;28;20535;-82
2022/12/24 07:04:13;;;;;;;73.95;7.93;;;8.10;99.90;;;;;;5022938;28;20037;-84
2022/12/24 07:06:41;;;;;;;51.78;6.43;;;7.80;99.90;;;;;;5018015;28;20046;-81
2022/12/24 07:09:06;;;;;;;79.43;7.72;;;8.20;99.90;;;;;;5025556;28;20063;-80
2022/12/24 07:11:33;;;;;;;68.22;7.63;;;8.20;99.90;;;;;;5032760;28;20465;-81
2022/12/24 07:14:52;;;;;;;66.18;7.15;;;8.20;99.90;;;;;;5021074;28;20033;-83
2022/12/24 07:17:18;;;;;;;55.75;6.97;;;7.80;99.90;;;;;;5035195;28;20060;-82
2022/12/24 07:19:43;;;;;;;63.72;6.78;;;8.20;99.90;;;;;;5021355;28;20484;-79
2022/12/24 07:22:09;;;;;;;64.75;7.40;;;8.20;99.90;;;;;;5027185;28;20041;-79
2022/12/24 07:24:34;;;;;;;74.75;7.47;;;8.10;99.90;;;;;;5049820;28;20049;-81
2022/12/24 07:27:00;;;;;;;65.72;7.38;;;8.00;99.90;;;;;;5036685;28;20041;-79
2022/12/24 07:29:26;;;;;;;70.35;6.97;;;7.90;99.90;;;;;;5043222;28;20053;-80
2022/12/24 07:31:51;;;;;;;60.10;7.07;;;7.60;99.90;;;;;;5018884;28;20057;-78
2022/12/24 07:34:17;;;;;;;71.13;7.80;;;7.80;99.90;;;;;;5031689;28;20044;-77
2022/12/24 07:36:43;;;;;;;66.63;6.82;;;7.80;99.90;;;;;;5013921;28;20056;-78
2022/12/24 07:39:08;;;;;;;65.97;8.02;;;7.80;99.90;;;;;;5017451;28;20032;-81
2022/12/24 07:41:34;;;;;;;72.20;7.85;;;7.60;99.90;;;;;;5060073;28;20048;-81
2022/12/24 07:44:15;;;;;;;65.97;7.85;;;7.40;99.90;;;;;;5062382;28;20098;-82
2022/12/24 07:46:44;;;;;;;73.55;7.50;;;7.40;99.90;;;;;;5024954;28;20702;-81
2022/12/24 07:49:10;;;;;;;55.30;6.72;;;7.50;99.90;;;;;;5013438;28;20056;-83
2022/12/24 07:51:37;;;;;;;66.72;7.13;;;7.90;99.90;;;;;;5014910;28;20147;-83
2022/12/24 07:54:03;;;;;;;75.20;7.07;;;7.90;99.90;;;;;;5048829;28;20377;-81
2022/12/24 07:56:30;;;;;;;59.78;6.47;;;7.60;99.90;;;;;;5027449;28;20140;-82
2022/12/24 07:58:56;;;;;;;72.45;7.13;;;7.40;99.90;;;;;;5020460;28;20049;-81
2022/12/24 08:01:22;;;;;;;65.88;7.28;;;7.80;99.90;;;;;;5043053;28;20093;-79
2022/12/24 08:03:50;;;;;;;57.05;6.20;;;7.50;99.90;;;;;;5031964;28;20056;-78
2022/12/24 08:06:16;;;;;;;69.45;7.45;;;7.60;99.90;;;;;;5014350;28;20049;-78
2022/12/24 08:08:42;;;;;;;63.53;7.18;;;7.60;99.90;;;;;;5029095;28;20068;-78
2022/12/24 08:11:07;;;;;;;61.10;7.50;;;7.80;99.90;;;;;;5041865;28;20070;-78
2022/12/24 08:13:34;;;;;;;53.53;6.95;;;7.80;99.90;;;;;;5037581;28;20049;-81
2022/12/24 08:16:19;;;;;;;68.43;7.50;;;8.10;99.90;;;;;;5021025;28;20076;-80
2022/12/24 08:18:45;;;;;;;74.18;8.35;;;8.10;99.90;;;;;;5040213;28;20376;-80
2022/12/24 08:21:11;;;;;;;77.93;7.57;;;8.00;99.90;;;;;;5037092;28;20037;-81
2022/12/24 08:23:36;;;;;;;65.00;7.00;;;8.00;99.90;;;;;;5017607;28;20720;-78
2022/12/24 08:26:07;;;;;;;72.78;7.85;;;8.00;99.90;;;;;;5014431;28;20138;-80
2022/12/24 08:28:35;;;;;;;78.97;8.65;;;7.80;99.90;;;;;;5036701;28;20045;-83
2022/12/24 08:31:01;;;;;;;71.30;8.32;;;8.00;99.90;;;;;;5015812;28;20057;-80
2022/12/24 08:33:27;;;;;;;86.93;8.95;;;8.00;99.90;;;;;;5047708;28;20037;-81
2022/12/24 08:35:54;;;;;;;66.88;8.00;;;8.00;99.90;;;;;;5018334;28;20044;-79
2022/12/24 08:38:21;;;;;;;76.07;8.60;;;7.90;99.90;;;;;;5024928;28;20045;-84
2022/12/24 08:40:48;;;;;;;81.95;9.77;;;7.90;99.90;;;;;;5019063;28;20037;-83
2022/12/24 08:43:15;;;;;;;70.53;7.63;;;8.20;99.90;;;;;;5037125;28;20071;-81
2022/12/24 08:45:41;;;;;;;75.00;7.65;;;8.30;99.90;;;;;;5044123;28;20537;-79
2022/12/24 08:48:08;;;;;;;59.83;7.80;;;8.00;99.90;;;;;;5036638;28;20199;-81
2022/12/24 08:50:36;;;;;;;69.97;7.35;;;8.10;99.90;;;;;;5019969;28;20056;-81
2022/12/24 08:53:03;;;;;;;67.20;7.93;;;8.10;99.90;;;;;;5038571;28;20128;-79
2022/12/24 08:55:29;;;;;;;66.40;7.60;;;8.20;99.90;;;;;;5022045;28;20149;-80
2022/12/24 08:57:55;;;;;;;64.47;7.43;;;8.10;99.90;;;;;;5027689;28;20897;-78
2022/12/24 09:00:21;;;;;;;71.05;7.35;;;8.40;99.90;;;;;;5068175;28;20098;-79
2022/12/24 09:02:46;;;;;;;73.65;7.93;;;8.40;99.90;;;;;;5046281;28;20164;-80
2022/12/24 09:05:12;;;;;;;72.97;7.43;;;8.50;99.90;;;;;;5036138;28;20053;-82
2022/12/24 09:07:37;;;;;;;68.43;7.78;;;8.20;99.90;;;;;;5069971;28;20048;-80
2022/12/24 09:10:04;;;;;;;70.47;8.57;;;8.40;99.90;;;;;;5034798;28;20048;-80
2022/12/24 09:12:30;;;;;;;63.90;7.75;;;8.20;99.90;;;;;;5039079;28;21528;-78
2022/12/24 09:14:55;;;;;;;64.47;8.50;;;8.20;99.90;;;;;;5026979;28;20045;-82
2022/12/24 09:17:21;;;;;;;69.80;8.20;;;8.20;99.90;;;;;;5019062;28;20049;-82
2022/12/24 09:19:47;;;;;;;73.35;7.63;;;8.50;99.90;;;;;;5035216;28;20056;-79
2022/12/24 09:22:13;;;;;;;54.35;7.63;;;8.60;99.90;;;;;;5018468;28;20083;-83
2022/12/24 09:24:39;;;;;;;55.60;7.45;;;8.40;99.90;;;;;;5017501;28;21761;-80
2022/12/24 09:27:05;;;;;;;60.15;6.97;;;8.70;99.90;;;;;;5032398;28;20107;-79
2022/12/24 09:29:46;;;;;;;59.10;7.20;;;8.40;99.90;;;;;;5017260;28;20061;-81
2022/12/24 09:32:11;;;;;;;59.70;6.93;;;8.60;99.90;;;;;;5048891;28;20118;-80
2022/12/24 09:34:37;;;;;;;61.10;6.97;;;8.60;99.90;;;;;;5036535;28;20113;-81
2022/12/24 09:37:03;;;;;;;56.60;7.00;;;8.30;99.90;;;;;;5038263;28;20041;-82
2022/12/24 09:39:29;;;;;;;51.63;6.55;;;8.60;99.90;;;;;;5025233;28;20056;-81
2022/12/24 09:42:06;;;;;;;72.75;7.18;;;8.20;99.90;;;;;;5039315;28;20036;-79
2022/12/24 09:44:42;;;;;;;53.55;6.72;;;8.30;99.90;;;;;;5021161;28;20049;-82
2022/12/24 09:47:45;;;;;;;60.55;6.55;;;8.60;99.90;;;;;;5040615;28;20218;-79
2022/12/24 09:50:39;;;;;;;64.85;7.13;;;8.40;99.90;;;;;;5039601;28;20124;-79
2022/12/24 09:53:21;;;;;;;64.47;7.07;;;8.50;99.90;;;;;;5028358;28;20064;-80
2022/12/24 09:55:58;;;;;;;53.13;6.57;;;8.50;99.90;;;;;;5048442;28;20089;-80
2022/12/24 09:58:28;;;;;;;59.78;7.28;;;8.30;99.90;;;;;;5030684;28;20091;-82
2022/12/24 10:00:55;;;;;;;59.72;7.07;;;8.40;99.90;;;;;;5052001;28;20048;-85
2022/12/24 10:03:21;;;;;;;67.70;6.97;;;8.70;99.90;;;;;;5022845;28;20036;-83
2022/12/24 10:06:08;;;;;;;59.97;7.63;;;8.60;99.90;;;;;;5022303;28;20024;-79
2022/12/24 10:09:07;;;;;;;64.30;6.78;;;9.00;99.90;;;;;;5037174;28;20128;-84
2022/12/24 10:11:49;;;;;;;68.25;7.32;;;9.00;99.90;;;;;;5039708;28;20054;-81
2022/12/24 10:14:33;;;;;;;65.43;7.50;;;8.60;99.90;;;;;;4997712;28;20125;-84
2022/12/24 10:17:29;;;;;;;52.17;7.25;;;8.70;99.90;;;;;;5008720;28;20099;-80
2022/12/24 10:20:21;;;;;;;61.38;8.05;;;8.70;99.90;;;;;;5013170;28;20116;-84
2022/12/24 10:22:56;;;;;;;57.95;7.20;;;9.10;99.90;;;;;;4990996;28;20084;-80
2022/12/24 10:25:40;;;;;;;67.32;7.85;;;8.90;99.90;;;;;;5023668;28;20065;-81
2022/12/24 10:28:14;;;;;;;66.30;7.72;;;9.30;99.90;;;;;;5039579;28;20056;-81
2022/12/24 10:30:41;;;;;;;54.15;6.40;;;9.30;99.90;;;;;;5003971;28;20045;-81
2022/12/24 10:33:46;;;;;;;75.40;8.13;;;9.10;99.90;;;;;;5042049;28;20080;-80
2022/12/24 10:36:19;;;;;;;60.13;7.05;;;9.50;99.90;;;;;;5008987;28;20060;-81
2022/12/24 10:38:45;;;;;;;68.05;7.57;;;9.30;99.90;;;;;;4995504;28;20481;-82
2022/12/24 10:41:13;;;;;;;57.65;7.20;;;9.60;99.90;;;;;;5006867;28;20509;-81
2022/12/24 10:43:41;;;;;;;52.80;7.20;;;9.70;99.90;;;;;;5010131;28;20528;-83
2022/12/24 10:46:17;;;;;;;72.25;8.07;;;9.60;99.90;;;;;;5007525;28;20140;-81
2022/12/24 10:49:11;;;;;;;67.60;7.32;;;9.30;99.90;;;;;;5052902;28;20053;-83
2022/12/24 10:51:50;;;;;;;50.17;6.88;;;9.60;99.90;;;;;;5036983;28;20377;-83
2022/12/24 10:54:18;;;;;;;53.95;7.95;;;9.50;99.90;;;;;;5073047;28;20104;-82
2022/12/24 10:56:51;;;;;;;60.00;7.22;;;9.40;99.90;;;;;;5042613;28;20334;-79
2022/12/24 10:59:41;;;;;;;53.83;7.82;;;9.50;99.90;;;;;;5041079;28;20052;-79
2022/12/24 11:02:33;;;;;;;49.60;7.40;;;9.40;99.90;;;;;;5045533;28;20037;-84
2022/12/24 11:05:03;;;;;;;59.78;7.55;;;9.70;99.90;;;;;;5037955;28;20129;-81
2022/12/24 11:07:30;;;;;;;50.50;7.32;;;9.30;99.90;;;;;;5044604;28;20124;-80
2022/12/24 11:10:02;;;;;;;48.53;6.38;;;9.70;99.90;;;;;;5022793;28;20041;-80
2022/12/24 11:12:39;;;;;;;57.22;8.00;;;9.60;99.90;;;;;;5048947;28;20045;-87
2022/12/24 11:15:25;;;;;;;44.88;6.55;;;9.60;99.90;;;;;;5035256;28;20041;-81
2022/12/24 11:18:05;;;;;;;52.03;6.32;;;9.50;99.90;;;;;;5022131;28;20048;-82
2022/12/24 11:20:33;;;;;;;50.58;7.03;;;9.50;99.90;;;;;;5034964;28;20473;-80
2022/12/24 11:23:01;;;;;;;38.92;6.85;;;9.50;99.90;;;;;;5017699;28;20057;-81
2022/12/24 11:25:30;;;;;;;50.60;6.25;;;9.60;99.90;;;;;;5059822;28;20076;-81
2022/12/24 11:28:17;;;;;;;57.10;6.93;;;9.40;99.90;;;;;;5040634;28;20065;-80
2022/12/24 11:30:57;;;;;;;50.20;6.43;;;9.70;99.90;;;;;;5051483;28;20112;-80
2022/12/24 11:33:23;;;;;;;48.85;6.40;;;9.40;99.90;;;;;;5031459;28;20081;-83
2022/12/24 11:36:11;;;;;;;46.63;6.00;;;9.70;99.90;;;;;;5014138;28;20068;-79
2022/12/24 11:38:37;;;;;;;54.13;5.65;;;9.60;99.90;;;;;;5059437;28;20080;-81
2022/12/24 11:41:07;;;;;;;46.47;5.95;;;9.50;99.90;;;;;;5035274;28;20040;-81
2022/12/24 11:44:02;;;;;;;39.90;5.63;;;9.70;99.90;;;;;;5019541;28;20052;-79
2022/12/24 11:46:40;;;;;;;38.33;4.97;;;9.70;99.90;;;;;;5016994;28;20076;-79
2022/12/24 11:49:11;;;;;;;42.72;6.07;;;9.40;99.90;;;;;;5016566;28;20421;-79
2022/12/24 11:52:05;;;;;;;37.75;5.85;;;9.70;99.90;;;;;;4984596;28;20532;-80
2022/12/24 11:54:43;;;;;;;42.72;6.07;;;9.40;99.90;;;;;;4991353;28;20849;-80
2022/12/24 11:57:13;;;;;;;49.03;5.43;;;9.70;99.90;;;;;;4995614;28;20050;-82
2022/12/24 11:59:45;;;;;;;36.97;5.10;;;9.70;99.90;;;;;;4994200;28;20080;-81
2022/12/24 12:02:33;;;;;;;39.95;6.40;;;9.50;99.90;;;;;;4979545;28;20074;-80
2022/12/24 12:05:08;;;;;;;51.38;6.22;;;9.70;99.90;;;;;;4983640;28;20643;-78
2022/12/24 12:07:35;;;;;;;41.55;5.55;;;9.50;99.90;;;;;;5002234;28;20049;-81
2022/12/24 12:10:21;;;;;;;28.33;4.50;;;9.70;99.90;;;;;;4992107;28;20049;-78
2022/12/24 12:13:02;;;;;;;41.20;6.38;;;9.40;99.90;;;;;;4986233;28;20049;-80
2022/12/24 12:15:34;;;;;;;35.85;4.82;;;9.60;99.90;;;;;;5003083;28;20037;-79
2022/12/24 12:18:05;;;;;;;36.92;6.07;;;9.40;99.90;;;;;;5026597;28;20095;-79
2022/12/24 12:20:41;;;;;;;32.42;5.25;;;9.60;99.90;;;;;;4985860;28;20058;-79
2022/12/24 12:23:29;;;;;;;40.35;5.50;;;9.40;99.90;;;;;;5058215;28;20057;-79
2022/12/24 12:26:03;;;;;;;32.60;6.20;;;9.30;99.90;;;;;;5055567;28;20049;-80
2022/12/24 12:28:49;;;;;;;37.15;5.35;;;9.20;99.90;;;;;;5059070;28;20051;-82
2022/12/24 12:31:35;;;;;;;33.80;6.63;;;9.30;99.90;;;;;;5035335;28;20049;-80
2022/12/24 12:34:12;;;;;;;30.27;5.53;;;9.50;99.90;;;;;;5068602;28;20052;-80
2022/12/24 12:36:41;;;;;;;30.85;4.35;;;9.50;99.90;;;;;;5033161;28;20050;-81
2022/12/24 12:39:09;;;;;;;26.48;4.45;;;9.50;99.90;;;;;;5017171;28;20052;-81
2022/12/24 12:41:47;;;;;;;32.05;6.32;;;9.60;99.90;;;;;;5057513;28;20140;-79
2022/12/24 12:44:35;;;;;;;29.70;4.97;;;9.60;99.90;;;;;;5034388;28;20057;-82
2022/12/24 12:47:21;;;;;;;40.08;5.80;;;9.70;99.90;;;;;;5032616;28;20397;-83
2022/12/24 12:50:05;;;;;;;44.00;5.32;;;9.50;99.90;;;;;;5016579;28;20417;-82
2022/12/24 12:52:50;;;;;;;43.55;6.90;;;9.60;99.90;;;;;;5034569;28;20131;-82
2022/12/24 12:56:06;;;;;;;37.07;6.27;;;9.50;99.90;;;;;;5034001;28;20053;-79
2022/12/24 12:58:36;;;;;;;;;;;9.40;99.90;;;;;;5004558;28;20081;-78
2022/12/24 13:01:40;;;;;;;38.40;5.25;;;9.40;99.90;;;;;;5007506;28;20365;-82
2022/12/24 13:04:33;;;;;;;41.03;5.63;;;9.60;99.90;;;;;;5011607;28;20163;-83
2022/12/24 13:07:13;;;;;;;42.28;4.82;;;9.50;99.90;;;;;;4981911;28;20049;-81
2022/12/24 13:10:07;;;;;;;33.67;4.75;;;9.60;99.90;;;;;;5001011;28;20072;-79
2022/12/24 13:13:24;;;;;;;33.10;4.90;;;9.50;99.90;;;;;;4995359;28;20057;-79